sensor_id;sensor_type;location;lat;lon;timestamp;P1;durP1;ratioP1;P2;durP2;ratioP2
22129;SDS011;11231;50.746;4.272;2023-11-19T00:00:33;10.90;;;4.80;;
22129;SDS011;11231;50.746;4.272;2023-11-19T00:02:59;11.97;;;4.50;;
22129;SDS011;11231;50.746;4.272;2023-11-19T00:05:24;12.97;;;5.07;;
22129;SDS011;11231;50.746;4.272;2023-11-19T00:07:50;8.53;;;4.07;;
22129;SDS011;11231;50.746;4.272;2023-11-19T00:10:16;12.40;;;4.10;;
22129;SDS011;11231;50.746;4.272;2023-11-19T00:12:44;16.13;;;4.50;;
22129;SDS011;11231;50.746;4.272;2023-11-19T00:15:12;13.17;;;4.07;;
22129;SDS011;11231;50.746;4.272;2023-11-19T00:17:41;16.23;;;3.90;;
22129;SDS011;11231;50.746;4.272;2023-11-19T00:20:10;10.67;;;3.70;;
22129;SDS011;11231;50.746;4.272;2023-11-19T00:22:36;14.93;;;4.00;;
22129;SDS011;11231;50.746;4.272;2023-11-19T00:25:02;13.13;;;3.80;;
22129;SDS011;11231;50.746;4.272;2023-11-19T00:27:28;17.57;;;4.57;;
22129;SDS011;11231;50.746;4.272;2023-11-19T00:29:54;15.37;;;3.80;;
22129;SDS011;11231;50.746;4.272;2023-11-19T00:32:20;16.40;;;4.37;;
22129;SDS011;11231;50.746;4.272;2023-11-19T00:34:46;14.73;;;3.43;;
22129;SDS011;11231;50.746;4.272;2023-11-19T00:37:13;16.93;;;3.80;;
22129;SDS011;11231;50.746;4.272;2023-11-19T00:39:40;15.17;;;3.70;;
22129;SDS011;11231;50.746;4.272;2023-11-19T00:42:06;16.33;;;3.40;;
22129;SDS011;11231;50.746;4.272;2023-11-19T00:44:32;16.13;;;3.50;;
22129;SDS011;11231;50.746;4.272;2023-11-19T00:46:58;15.63;;;3.43;;
22129;SDS011;11231;50.746;4.272;2023-11-19T00:49:25;15.33;;;3.33;;
22129;SDS011;11231;50.746;4.272;2023-11-19T00:51:51;15.27;;;3.10;;
22129;SDS011;11231;50.746;4.272;2023-11-19T00:54:16;16.57;;;3.03;;
22129;SDS011;11231;50.746;4.272;2023-11-19T00:56:42;17.10;;;3.33;;
22129;SDS011;11231;50.746;4.272;2023-11-19T00:59:08;18.40;;;3.40;;
22129;SDS011;11231;50.746;4.272;2023-11-19T01:01:34;19.30;;;3.40;;
22129;SDS011;11231;50.746;4.272;2023-11-19T01:03:59;13.90;;;2.83;;
22129;SDS011;11231;50.746;4.272;2023-11-19T01:06:28;14.50;;;2.93;;
22129;SDS011;11231;50.746;4.272;2023-11-19T01:08:57;17.90;;;3.53;;
22129;SDS011;11231;50.746;4.272;2023-11-19T01:11:24;18.97;;;3.23;;
22129;SDS011;11231;50.746;4.272;2023-11-19T01:13:50;18.53;;;3.20;;
22129;SDS011;11231;50.746;4.272;2023-11-19T01:16:16;18.73;;;2.97;;
22129;SDS011;11231;50.746;4.272;2023-11-19T01:18:42;17.63;;;3.00;;
22129;SDS011;11231;50.746;4.272;2023-11-19T01:21:09;20.57;;;2.87;;
22129;SDS011;11231;50.746;4.272;2023-11-19T01:23:35;22.77;;;3.70;;
22129;SDS011;11231;50.746;4.272;2023-11-19T01:26:02;13.97;;;2.77;;
22129;SDS011;11231;50.746;4.272;2023-11-19T01:28:28;18.63;;;3.27;;
22129;SDS011;11231;50.746;4.272;2023-11-19T01:30:56;20.63;;;3.30;;
22129;SDS011;11231;50.746;4.272;2023-11-19T01:33:21;21.93;;;3.43;;
22129;SDS011;11231;50.746;4.272;2023-11-19T01:35:47;17.63;;;2.93;;
22129;SDS011;11231;50.746;4.272;2023-11-19T01:38:13;21.33;;;3.23;;
22129;SDS011;11231;50.746;4.272;2023-11-19T01:40:39;19.83;;;2.87;;
22129;SDS011;11231;50.746;4.272;2023-11-19T01:43:05;17.93;;;3.00;;
22129;SDS011;11231;50.746;4.272;2023-11-19T01:45:31;21.13;;;3.13;;
22129;SDS011;11231;50.746;4.272;2023-11-19T01:47:59;18.37;;;3.00;;
22129;SDS011;11231;50.746;4.272;2023-11-19T01:50:28;21.33;;;3.30;;
22129;SDS011;11231;50.746;4.272;2023-11-19T01:52:55;23.30;;;3.60;;
22129;SDS011;11231;50.746;4.272;2023-11-19T01:55:25;22.03;;;3.00;;
22129;SDS011;11231;50.746;4.272;2023-11-19T01:57:57;22.00;;;3.20;;
22129;SDS011;11231;50.746;4.272;2023-11-19T02:00:25;24.17;;;3.23;;
22129;SDS011;11231;50.746;4.272;2023-11-19T02:02:51;22.97;;;3.50;;
22129;SDS011;11231;50.746;4.272;2023-11-19T02:05:17;21.00;;;3.53;;
22129;SDS011;11231;50.746;4.272;2023-11-19T02:07:43;18.73;;;2.87;;
22129;SDS011;11231;50.746;4.272;2023-11-19T02:10:11;20.57;;;3.37;;
22129;SDS011;11231;50.746;4.272;2023-11-19T02:12:40;20.93;;;3.30;;
22129;SDS011;11231;50.746;4.272;2023-11-19T02:15:10;22.63;;;3.57;;
22129;SDS011;11231;50.746;4.272;2023-11-19T02:17:35;22.07;;;3.40;;
22129;SDS011;11231;50.746;4.272;2023-11-19T02:20:03;17.97;;;3.20;;
22129;SDS011;11231;50.746;4.272;2023-11-19T02:22:37;24.17;;;3.63;;
22129;SDS011;11231;50.746;4.272;2023-11-19T02:25:23;25.77;;;3.90;;
22129;SDS011;11231;50.746;4.272;2023-11-19T02:28:01;15.30;;;3.17;;
22129;SDS011;11231;50.746;4.272;2023-11-19T02:30:27;21.03;;;2.80;;
22129;SDS011;11231;50.746;4.272;2023-11-19T02:32:56;22.53;;;3.53;;
22129;SDS011;11231;50.746;4.272;2023-11-19T02:35:26;26.13;;;3.30;;
22129;SDS011;11231;50.746;4.272;2023-11-19T02:37:56;21.90;;;3.07;;
22129;SDS011;11231;50.746;4.272;2023-11-19T02:40:23;18.50;;;2.97;;
22129;SDS011;11231;50.746;4.272;2023-11-19T02:42:50;23.27;;;3.27;;
22129;SDS011;11231;50.746;4.272;2023-11-19T02:45:16;19.07;;;2.87;;
22129;SDS011;11231;50.746;4.272;2023-11-19T02:47:42;22.77;;;2.87;;
22129;SDS011;11231;50.746;4.272;2023-11-19T02:50:12;19.37;;;2.90;;
22129;SDS011;11231;50.746;4.272;2023-11-19T02:52:41;27.00;;;3.70;;
22129;SDS011;11231;50.746;4.272;2023-11-19T02:55:08;25.43;;;3.80;;
22129;SDS011;11231;50.746;4.272;2023-11-19T02:57:41;23.93;;;3.50;;
22129;SDS011;11231;50.746;4.272;2023-11-19T03:00:20;19.30;;;3.33;;
22129;SDS011;11231;50.746;4.272;2023-11-19T03:02:50;18.23;;;3.27;;
22129;SDS011;11231;50.746;4.272;2023-11-19T03:05:35;23.17;;;3.70;;
22129;SDS011;11231;50.746;4.272;2023-11-19T03:08:00;19.50;;;3.77;;
22129;SDS011;11231;50.746;4.272;2023-11-19T03:10:26;21.97;;;3.40;;
22129;SDS011;11231;50.746;4.272;2023-11-19T03:12:54;23.03;;;3.10;;
22129;SDS011;11231;50.746;4.272;2023-11-19T03:15:22;23.17;;;3.67;;
22129;SDS011;11231;50.746;4.272;2023-11-19T03:17:48;33.70;;;4.30;;
22129;SDS011;11231;50.746;4.272;2023-11-19T03:20:15;29.67;;;3.50;;
22129;SDS011;11231;50.746;4.272;2023-11-19T03:22:42;23.43;;;3.30;;
22129;SDS011;11231;50.746;4.272;2023-11-19T03:25:08;21.93;;;3.27;;
22129;SDS011;11231;50.746;4.272;2023-11-19T03:27:35;21.93;;;3.47;;
22129;SDS011;11231;50.746;4.272;2023-11-19T03:30:02;24.80;;;3.80;;
22129;SDS011;11231;50.746;4.272;2023-11-19T03:32:30;27.73;;;3.47;;
22129;SDS011;11231;50.746;4.272;2023-11-19T03:34:57;30.97;;;3.80;;
22129;SDS011;11231;50.746;4.272;2023-11-19T03:37:23;27.40;;;3.67;;
22129;SDS011;11231;50.746;4.272;2023-11-19T03:39:49;25.33;;;3.27;;
22129;SDS011;11231;50.746;4.272;2023-11-19T03:42:14;21.87;;;3.40;;
22129;SDS011;11231;50.746;4.272;2023-11-19T03:44:40;28.63;;;3.63;;
22129;SDS011;11231;50.746;4.272;2023-11-19T03:47:06;28.67;;;3.47;;
22129;SDS011;11231;50.746;4.272;2023-11-19T03:49:32;26.13;;;3.63;;
22129;SDS011;11231;50.746;4.272;2023-11-19T03:51:57;26.17;;;4.27;;
22129;SDS011;11231;50.746;4.272;2023-11-19T03:54:23;24.43;;;3.20;;
22129;SDS011;11231;50.746;4.272;2023-11-19T03:56:49;31.57;;;4.17;;
22129;SDS011;11231;50.746;4.272;2023-11-19T03:59:15;28.10;;;3.87;;
22129;SDS011;11231;50.746;4.272;2023-11-19T04:01:41;24.93;;;3.90;;
22129;SDS011;11231;50.746;4.272;2023-11-19T04:04:06;30.30;;;3.87;;
22129;SDS011;11231;50.746;4.272;2023-11-19T04:06:32;31.97;;;3.70;;
22129;SDS011;11231;50.746;4.272;2023-11-19T04:08:58;23.33;;;3.37;;
22129;SDS011;11231;50.746;4.272;2023-11-19T04:11:23;26.17;;;4.23;;
22129;SDS011;11231;50.746;4.272;2023-11-19T04:13:49;27.20;;;3.70;;
22129;SDS011;11231;50.746;4.272;2023-11-19T04:16:15;30.70;;;4.00;;
22129;SDS011;11231;50.746;4.272;2023-11-19T04:18:41;29.67;;;4.00;;
22129;SDS011;11231;50.746;4.272;2023-11-19T04:21:07;33.03;;;4.60;;
22129;SDS011;11231;50.746;4.272;2023-11-19T04:23:33;28.57;;;4.00;;
22129;SDS011;11231;50.746;4.272;2023-11-19T04:26:01;31.47;;;4.27;;
22129;SDS011;11231;50.746;4.272;2023-11-19T04:28:29;31.13;;;4.50;;
22129;SDS011;11231;50.746;4.272;2023-11-19T04:30:55;29.33;;;4.10;;
22129;SDS011;11231;50.746;4.272;2023-11-19T04:33:21;29.20;;;4.20;;
22129;SDS011;11231;50.746;4.272;2023-11-19T04:35:47;27.83;;;4.37;;
22129;SDS011;11231;50.746;4.272;2023-11-19T04:38:12;36.63;;;4.80;;
22129;SDS011;11231;50.746;4.272;2023-11-19T04:40:38;26.47;;;4.00;;
22129;SDS011;11231;50.746;4.272;2023-11-19T04:43:04;31.00;;;3.97;;
22129;SDS011;11231;50.746;4.272;2023-11-19T04:45:29;35.00;;;4.67;;
22129;SDS011;11231;50.746;4.272;2023-11-19T04:47:55;23.27;;;3.87;;
22129;SDS011;11231;50.746;4.272;2023-11-19T04:50:21;28.20;;;4.53;;
22129;SDS011;11231;50.746;4.272;2023-11-19T04:52:46;34.17;;;4.50;;
22129;SDS011;11231;50.746;4.272;2023-11-19T04:55:12;27.77;;;3.80;;
22129;SDS011;11231;50.746;4.272;2023-11-19T04:57:39;26.70;;;3.73;;
22129;SDS011;11231;50.746;4.272;2023-11-19T05:00:05;24.90;;;3.87;;
22129;SDS011;11231;50.746;4.272;2023-11-19T05:02:33;26.30;;;4.23;;
22129;SDS011;11231;50.746;4.272;2023-11-19T05:05:00;31.03;;;4.73;;
22129;SDS011;11231;50.746;4.272;2023-11-19T05:07:26;30.77;;;4.27;;
22129;SDS011;11231;50.746;4.272;2023-11-19T05:09:52;29.47;;;4.13;;
22129;SDS011;11231;50.746;4.272;2023-11-19T05:12:18;25.33;;;3.70;;
22129;SDS011;11231;50.746;4.272;2023-11-19T05:14:43;33.50;;;4.80;;
22129;SDS011;11231;50.746;4.272;2023-11-19T05:17:14;31.70;;;4.47;;
22129;SDS011;11231;50.746;4.272;2023-11-19T05:19:40;31.77;;;4.70;;
22129;SDS011;11231;50.746;4.272;2023-11-19T05:22:06;30.23;;;4.40;;
22129;SDS011;11231;50.746;4.272;2023-11-19T05:24:32;29.97;;;4.30;;
22129;SDS011;11231;50.746;4.272;2023-11-19T05:26:58;29.20;;;4.70;;
22129;SDS011;11231;50.746;4.272;2023-11-19T05:29:24;40.17;;;4.83;;
22129;SDS011;11231;50.746;4.272;2023-11-19T05:31:49;33.73;;;4.73;;
22129;SDS011;11231;50.746;4.272;2023-11-19T05:34:15;35.80;;;5.20;;
22129;SDS011;11231;50.746;4.272;2023-11-19T05:36:41;35.50;;;4.83;;
22129;SDS011;11231;50.746;4.272;2023-11-19T05:39:08;32.37;;;4.03;;
22129;SDS011;11231;50.746;4.272;2023-11-19T05:41:33;31.93;;;3.97;;
22129;SDS011;11231;50.746;4.272;2023-11-19T05:43:59;31.47;;;4.47;;
22129;SDS011;11231;50.746;4.272;2023-11-19T05:46:25;33.53;;;4.93;;
22129;SDS011;11231;50.746;4.272;2023-11-19T05:48:52;33.67;;;4.40;;
22129;SDS011;11231;50.746;4.272;2023-11-19T05:51:17;36.63;;;4.60;;
22129;SDS011;11231;50.746;4.272;2023-11-19T05:53:43;28.30;;;4.20;;
22129;SDS011;11231;50.746;4.272;2023-11-19T05:56:12;31.80;;;4.27;;
22129;SDS011;11231;50.746;4.272;2023-11-19T05:58:38;33.50;;;4.67;;
22129;SDS011;11231;50.746;4.272;2023-11-19T06:01:05;39.23;;;4.57;;
22129;SDS011;11231;50.746;4.272;2023-11-19T06:03:32;31.77;;;4.30;;
22129;SDS011;11231;50.746;4.272;2023-11-19T06:05:58;32.07;;;4.27;;
22129;SDS011;11231;50.746;4.272;2023-11-19T06:08:24;33.10;;;4.60;;
22129;SDS011;11231;50.746;4.272;2023-11-19T06:10:52;31.70;;;4.47;;
22129;SDS011;11231;50.746;4.272;2023-11-19T06:13:18;28.57;;;4.60;;
22129;SDS011;11231;50.746;4.272;2023-11-19T06:15:44;32.80;;;4.67;;
22129;SDS011;11231;50.746;4.272;2023-11-19T06:18:10;27.90;;;3.80;;
22129;SDS011;11231;50.746;4.272;2023-11-19T06:20:40;31.13;;;4.33;;
22129;SDS011;11231;50.746;4.272;2023-11-19T06:23:06;27.20;;;4.53;;
22129;SDS011;11231;50.746;4.272;2023-11-19T06:25:31;29.27;;;4.77;;
22129;SDS011;11231;50.746;4.272;2023-11-19T06:27:58;32.63;;;4.83;;
22129;SDS011;11231;50.746;4.272;2023-11-19T06:30:24;28.20;;;4.80;;
22129;SDS011;11231;50.746;4.272;2023-11-19T06:32:50;37.43;;;4.73;;
22129;SDS011;11231;50.746;4.272;2023-11-19T06:35:16;36.47;;;4.77;;
22129;SDS011;11231;50.746;4.272;2023-11-19T06:37:42;40.43;;;4.50;;
22129;SDS011;11231;50.746;4.272;2023-11-19T06:40:08;35.73;;;5.13;;
22129;SDS011;11231;50.746;4.272;2023-11-19T06:42:34;35.57;;;6.77;;
22129;SDS011;11231;50.746;4.272;2023-11-19T06:45:01;37.67;;;5.77;;
22129;SDS011;11231;50.746;4.272;2023-11-19T06:47:28;35.57;;;7.07;;
22129;SDS011;11231;50.746;4.272;2023-11-19T06:49:54;31.73;;;5.33;;
22129;SDS011;11231;50.746;4.272;2023-11-19T06:52:20;34.40;;;6.93;;
22129;SDS011;11231;50.746;4.272;2023-11-19T06:54:46;38.23;;;7.07;;
22129;SDS011;11231;50.746;4.272;2023-11-19T06:57:12;36.30;;;6.33;;
22129;SDS011;11231;50.746;4.272;2023-11-19T06:59:38;36.80;;;7.03;;
22129;SDS011;11231;50.746;4.272;2023-11-19T07:02:05;36.97;;;5.63;;
22129;SDS011;11231;50.746;4.272;2023-11-19T07:04:31;40.27;;;5.83;;
22129;SDS011;11231;50.746;4.272;2023-11-19T07:06:58;35.67;;;6.00;;
22129;SDS011;11231;50.746;4.272;2023-11-19T07:09:27;37.77;;;6.50;;
22129;SDS011;11231;50.746;4.272;2023-11-19T07:11:53;33.93;;;6.63;;
22129;SDS011;11231;50.746;4.272;2023-11-19T07:14:19;35.97;;;5.90;;
22129;SDS011;11231;50.746;4.272;2023-11-19T07:16:45;40.13;;;5.80;;
22129;SDS011;11231;50.746;4.272;2023-11-19T07:19:15;34.83;;;5.93;;
22129;SDS011;11231;50.746;4.272;2023-11-19T07:21:41;45.70;;;6.20;;
22129;SDS011;11231;50.746;4.272;2023-11-19T07:24:09;43.37;;;7.13;;
22129;SDS011;11231;50.746;4.272;2023-11-19T07:26:40;40.50;;;7.00;;
22129;SDS011;11231;50.746;4.272;2023-11-19T07:29:10;38.00;;;5.20;;
22129;SDS011;11231;50.746;4.272;2023-11-19T07:31:36;37.27;;;5.50;;
22129;SDS011;11231;50.746;4.272;2023-11-19T07:34:02;38.27;;;5.00;;
22129;SDS011;11231;50.746;4.272;2023-11-19T07:36:28;40.63;;;5.47;;
22129;SDS011;11231;50.746;4.272;2023-11-19T07:38:54;33.40;;;4.53;;
22129;SDS011;11231;50.746;4.272;2023-11-19T07:41:22;36.30;;;4.80;;
22129;SDS011;11231;50.746;4.272;2023-11-19T07:43:50;32.80;;;4.80;;
22129;SDS011;11231;50.746;4.272;2023-11-19T07:46:16;35.83;;;5.90;;
22129;SDS011;11231;50.746;4.272;2023-11-19T07:48:45;37.43;;;4.47;;
22129;SDS011;11231;50.746;4.272;2023-11-19T07:51:12;34.10;;;4.67;;
22129;SDS011;11231;50.746;4.272;2023-11-19T07:53:38;31.87;;;4.70;;
22129;SDS011;11231;50.746;4.272;2023-11-19T07:56:06;37.47;;;4.50;;
22129;SDS011;11231;50.746;4.272;2023-11-19T07:58:32;37.67;;;5.53;;
22129;SDS011;11231;50.746;4.272;2023-11-19T08:00:58;33.70;;;4.70;;
22129;SDS011;11231;50.746;4.272;2023-11-19T08:03:23;35.53;;;5.00;;
22129;SDS011;11231;50.746;4.272;2023-11-19T08:05:49;30.83;;;6.33;;
22129;SDS011;11231;50.746;4.272;2023-11-19T08:08:15;34.67;;;4.27;;
22129;SDS011;11231;50.746;4.272;2023-11-19T08:10:41;31.20;;;5.50;;
22129;SDS011;11231;50.746;4.272;2023-11-19T08:13:08;29.37;;;5.00;;
22129;SDS011;11231;50.746;4.272;2023-11-19T08:15:34;32.70;;;4.83;;
22129;SDS011;11231;50.746;4.272;2023-11-19T08:17:59;28.30;;;5.20;;
22129;SDS011;11231;50.746;4.272;2023-11-19T08:20:25;27.73;;;4.07;;
22129;SDS011;11231;50.746;4.272;2023-11-19T08:22:51;29.90;;;4.73;;
22129;SDS011;11231;50.746;4.272;2023-11-19T08:25:17;27.40;;;4.43;;
22129;SDS011;11231;50.746;4.272;2023-11-19T08:27:42;32.03;;;4.67;;
22129;SDS011;11231;50.746;4.272;2023-11-19T08:30:08;32.57;;;4.57;;
22129;SDS011;11231;50.746;4.272;2023-11-19T08:32:35;34.70;;;5.03;;
22129;SDS011;11231;50.746;4.272;2023-11-19T08:35:01;27.33;;;4.67;;
22129;SDS011;11231;50.746;4.272;2023-11-19T08:37:27;29.77;;;5.00;;
22129;SDS011;11231;50.746;4.272;2023-11-19T08:39:53;30.57;;;4.30;;
22129;SDS011;11231;50.746;4.272;2023-11-19T08:42:18;34.83;;;5.43;;
22129;SDS011;11231;50.746;4.272;2023-11-19T08:44:48;26.43;;;4.20;;
22129;SDS011;11231;50.746;4.272;2023-11-19T08:47:16;30.07;;;4.17;;
22129;SDS011;11231;50.746;4.272;2023-11-19T08:49:43;28.90;;;4.47;;
22129;SDS011;11231;50.746;4.272;2023-11-19T08:52:09;29.60;;;3.97;;
22129;SDS011;11231;50.746;4.272;2023-11-19T08:54:36;25.47;;;4.80;;
22129;SDS011;11231;50.746;4.272;2023-11-19T08:57:02;29.80;;;4.43;;
22129;SDS011;11231;50.746;4.272;2023-11-19T08:59:29;30.30;;;5.30;;
22129;SDS011;11231;50.746;4.272;2023-11-19T09:01:55;27.80;;;5.27;;
22129;SDS011;11231;50.746;4.272;2023-11-19T09:04:20;22.57;;;3.93;;
22129;SDS011;11231;50.746;4.272;2023-11-19T09:06:48;23.47;;;4.40;;
22129;SDS011;11231;50.746;4.272;2023-11-19T09:09:14;28.23;;;4.67;;
22129;SDS011;11231;50.746;4.272;2023-11-19T09:11:40;26.70;;;5.23;;
22129;SDS011;11231;50.746;4.272;2023-11-19T09:14:06;28.40;;;5.87;;
22129;SDS011;11231;50.746;4.272;2023-11-19T09:16:32;24.20;;;4.37;;
22129;SDS011;11231;50.746;4.272;2023-11-19T09:18:58;26.57;;;4.50;;
22129;SDS011;11231;50.746;4.272;2023-11-19T09:21:25;28.33;;;5.03;;
22129;SDS011;11231;50.746;4.272;2023-11-19T09:23:51;26.67;;;4.40;;
22129;SDS011;11231;50.746;4.272;2023-11-19T09:26:19;32.77;;;4.80;;
22129;SDS011;11231;50.746;4.272;2023-11-19T09:28:44;28.87;;;4.67;;
22129;SDS011;11231;50.746;4.272;2023-11-19T09:31:14;29.47;;;6.43;;
22129;SDS011;11231;50.746;4.272;2023-11-19T09:33:43;28.13;;;6.30;;
22129;SDS011;11231;50.746;4.272;2023-11-19T09:36:11;26.43;;;4.63;;
22129;SDS011;11231;50.746;4.272;2023-11-19T09:38:38;35.63;;;5.40;;
22129;SDS011;11231;50.746;4.272;2023-11-19T09:41:05;27.53;;;4.87;;
22129;SDS011;11231;50.746;4.272;2023-11-19T09:43:34;28.03;;;4.97;;
22129;SDS011;11231;50.746;4.272;2023-11-19T09:46:06;24.63;;;4.73;;
22129;SDS011;11231;50.746;4.272;2023-11-19T09:48:37;25.13;;;4.57;;
22129;SDS011;11231;50.746;4.272;2023-11-19T09:51:09;20.93;;;4.00;;
22129;SDS011;11231;50.746;4.272;2023-11-19T09:53:36;27.53;;;4.97;;
22129;SDS011;11231;50.746;4.272;2023-11-19T09:56:03;26.90;;;5.97;;
22129;SDS011;11231;50.746;4.272;2023-11-19T09:58:31;25.70;;;4.57;;
22129;SDS011;11231;50.746;4.272;2023-11-19T10:01:00;21.93;;;4.83;;
22129;SDS011;11231;50.746;4.272;2023-11-19T10:03:32;22.50;;;3.77;;
22129;SDS011;11231;50.746;4.272;2023-11-19T10:06:00;27.67;;;4.27;;
22129;SDS011;11231;50.746;4.272;2023-11-19T10:08:27;25.67;;;4.20;;
22129;SDS011;11231;50.746;4.272;2023-11-19T10:10:52;25.63;;;4.10;;
22129;SDS011;11231;50.746;4.272;2023-11-19T10:13:18;25.27;;;3.80;;
22129;SDS011;11231;50.746;4.272;2023-11-19T10:15:44;22.90;;;3.77;;
22129;SDS011;11231;50.746;4.272;2023-11-19T10:18:11;20.73;;;3.70;;
22129;SDS011;11231;50.746;4.272;2023-11-19T10:20:42;24.60;;;4.77;;
22129;SDS011;11231;50.746;4.272;2023-11-19T10:23:09;22.17;;;3.87;;
22129;SDS011;11231;50.746;4.272;2023-11-19T10:25:35;22.77;;;3.70;;
22129;SDS011;11231;50.746;4.272;2023-11-19T10:28:01;20.87;;;3.97;;
22129;SDS011;11231;50.746;4.272;2023-11-19T10:30:28;22.53;;;4.43;;
22129;SDS011;11231;50.746;4.272;2023-11-19T10:35:34;23.00;;;4.07;;
22129;SDS011;11231;50.746;4.272;2023-11-19T10:38:01;25.57;;;5.47;;
22129;SDS011;11231;50.746;4.272;2023-11-19T10:40:40;17.60;;;3.57;;
22129;SDS011;11231;50.746;4.272;2023-11-19T10:43:06;21.20;;;4.30;;
22129;SDS011;11231;50.746;4.272;2023-11-19T10:45:33;21.00;;;4.33;;
22129;SDS011;11231;50.746;4.272;2023-11-19T10:48:00;24.40;;;4.27;;
22129;SDS011;11231;50.746;4.272;2023-11-19T10:50:27;20.70;;;4.33;;
22129;SDS011;11231;50.746;4.272;2023-11-19T10:52:55;20.57;;;4.07;;
22129;SDS011;11231;50.746;4.272;2023-11-19T10:55:28;18.87;;;3.70;;
22129;SDS011;11231;50.746;4.272;2023-11-19T10:57:58;25.53;;;4.37;;
22129;SDS011;11231;50.746;4.272;2023-11-19T11:00:26;20.80;;;4.23;;
22129;SDS011;11231;50.746;4.272;2023-11-19T11:02:59;23.83;;;4.10;;
22129;SDS011;11231;50.746;4.272;2023-11-19T11:05:27;21.77;;;4.00;;
22129;SDS011;11231;50.746;4.272;2023-11-19T11:07:55;27.77;;;5.63;;
22129;SDS011;11231;50.746;4.272;2023-11-19T11:10:22;31.37;;;5.83;;
22129;SDS011;11231;50.746;4.272;2023-11-19T11:12:51;27.97;;;5.57;;
22129;SDS011;11231;50.746;4.272;2023-11-19T11:15:29;30.00;;;5.70;;
22129;SDS011;11231;50.746;4.272;2023-11-19T11:17:59;33.90;;;5.27;;
22129;SDS011;11231;50.746;4.272;2023-11-19T11:20:30;29.70;;;5.83;;
22129;SDS011;11231;50.746;4.272;2023-11-19T11:25:47;23.87;;;4.10;;
22129;SDS011;11231;50.746;4.272;2023-11-19T11:36:53;25.73;;;5.10;;
22129;SDS011;11231;50.746;4.272;2023-11-19T11:39:41;19.20;;;4.33;;
22129;SDS011;11231;50.746;4.272;2023-11-19T11:42:53;22.63;;;4.00;;
22129;SDS011;11231;50.746;4.272;2023-11-19T11:47:25;22.33;;;3.87;;
22129;SDS011;11231;50.746;4.272;2023-11-19T11:50:14;19.87;;;3.30;;
22129;SDS011;11231;50.746;4.272;2023-11-19T11:57:51;22.60;;;5.00;;
22129;SDS011;11231;50.746;4.272;2023-11-19T12:02:54;18.83;;;3.97;;
22129;SDS011;11231;50.746;4.272;2023-11-19T12:05:24;20.10;;;5.13;;
22129;SDS011;11231;50.746;4.272;2023-11-19T12:07:56;23.07;;;5.60;;
22129;SDS011;11231;50.746;4.272;2023-11-19T12:10:26;26.47;;;5.17;;
22129;SDS011;11231;50.746;4.272;2023-11-19T12:12:58;21.07;;;5.37;;
22129;SDS011;11231;50.746;4.272;2023-11-19T12:15:25;19.50;;;5.57;;
22129;SDS011;11231;50.746;4.272;2023-11-19T12:17:55;20.07;;;4.57;;
22129;SDS011;11231;50.746;4.272;2023-11-19T12:20:22;21.30;;;4.70;;
22129;SDS011;11231;50.746;4.272;2023-11-19T12:22:49;23.90;;;3.87;;
22129;SDS011;11231;50.746;4.272;2023-11-19T12:25:16;25.03;;;3.90;;
22129;SDS011;11231;50.746;4.272;2023-11-19T12:30:09;23.77;;;3.93;;
22129;SDS011;11231;50.746;4.272;2023-11-19T12:32:41;24.37;;;5.73;;
22129;SDS011;11231;50.746;4.272;2023-11-19T12:35:08;28.20;;;5.07;;
22129;SDS011;11231;50.746;4.272;2023-11-19T12:37:44;25.00;;;4.90;;
22129;SDS011;11231;50.746;4.272;2023-11-19T12:40:19;33.80;;;6.10;;
22129;SDS011;11231;50.746;4.272;2023-11-19T12:42:46;29.00;;;6.30;;
22129;SDS011;11231;50.746;4.272;2023-11-19T12:45:16;28.27;;;4.67;;
22129;SDS011;11231;50.746;4.272;2023-11-19T12:47:42;25.77;;;4.17;;
22129;SDS011;11231;50.746;4.272;2023-11-19T12:50:09;31.47;;;3.93;;
22129;SDS011;11231;50.746;4.272;2023-11-19T12:52:36;25.93;;;4.90;;
22129;SDS011;11231;50.746;4.272;2023-11-19T12:55:03;25.27;;;4.50;;
22129;SDS011;11231;50.746;4.272;2023-11-19T12:57:38;42.67;;;15.47;;
22129;SDS011;11231;50.746;4.272;2023-11-19T13:00:05;39.80;;;10.50;;
22129;SDS011;11231;50.746;4.272;2023-11-19T13:02:47;29.20;;;4.37;;
22129;SDS011;11231;50.746;4.272;2023-11-19T13:05:26;28.63;;;5.43;;
22129;SDS011;11231;50.746;4.272;2023-11-19T13:08:05;25.47;;;4.20;;
22129;SDS011;11231;50.746;4.272;2023-11-19T13:10:53;23.63;;;3.70;;
22129;SDS011;11231;50.746;4.272;2023-11-19T13:13:19;30.63;;;5.13;;
22129;SDS011;11231;50.746;4.272;2023-11-19T13:15:45;25.93;;;4.40;;
22129;SDS011;11231;50.746;4.272;2023-11-19T13:18:11;30.27;;;4.33;;
22129;SDS011;11231;50.746;4.272;2023-11-19T13:20:38;31.60;;;4.43;;
22129;SDS011;11231;50.746;4.272;2023-11-19T13:23:05;32.13;;;4.47;;
22129;SDS011;11231;50.746;4.272;2023-11-19T13:25:32;30.13;;;4.77;;
22129;SDS011;11231;50.746;4.272;2023-11-19T13:27:58;30.50;;;4.63;;
22129;SDS011;11231;50.746;4.272;2023-11-19T13:30:24;34.83;;;6.40;;
22129;SDS011;11231;50.746;4.272;2023-11-19T13:32:51;27.20;;;4.37;;
22129;SDS011;11231;50.746;4.272;2023-11-19T13:35:18;30.70;;;4.30;;
22129;SDS011;11231;50.746;4.272;2023-11-19T13:37:44;30.00;;;4.30;;
22129;SDS011;11231;50.746;4.272;2023-11-19T13:40:10;28.17;;;4.60;;
22129;SDS011;11231;50.746;4.272;2023-11-19T13:42:39;26.03;;;4.70;;
22129;SDS011;11231;50.746;4.272;2023-11-19T13:45:09;22.63;;;4.30;;
22129;SDS011;11231;50.746;4.272;2023-11-19T13:47:40;32.60;;;4.60;;
22129;SDS011;11231;50.746;4.272;2023-11-19T13:50:08;26.50;;;5.03;;
22129;SDS011;11231;50.746;4.272;2023-11-19T13:52:35;33.77;;;6.60;;
22129;SDS011;11231;50.746;4.272;2023-11-19T13:55:04;31.70;;;4.70;;
22129;SDS011;11231;50.746;4.272;2023-11-19T13:57:35;26.90;;;5.30;;
22129;SDS011;11231;50.746;4.272;2023-11-19T14:00:08;36.53;;;6.63;;
22129;SDS011;11231;50.746;4.272;2023-11-19T14:02:47;28.03;;;5.97;;
22129;SDS011;11231;50.746;4.272;2023-11-19T14:05:14;32.33;;;6.03;;
22129;SDS011;11231;50.746;4.272;2023-11-19T14:07:42;29.00;;;5.53;;
22129;SDS011;11231;50.746;4.272;2023-11-19T14:10:09;28.80;;;4.97;;
22129;SDS011;11231;50.746;4.272;2023-11-19T14:12:39;30.60;;;4.53;;
22129;SDS011;11231;50.746;4.272;2023-11-19T14:15:06;27.43;;;4.80;;
22129;SDS011;11231;50.746;4.272;2023-11-19T14:17:33;28.70;;;5.03;;
22129;SDS011;11231;50.746;4.272;2023-11-19T14:19:59;29.60;;;5.77;;
22129;SDS011;11231;50.746;4.272;2023-11-19T14:22:25;27.40;;;4.63;;
22129;SDS011;11231;50.746;4.272;2023-11-19T14:24:52;21.97;;;4.27;;
22129;SDS011;11231;50.746;4.272;2023-11-19T14:27:17;28.50;;;4.73;;
22129;SDS011;11231;50.746;4.272;2023-11-19T14:29:43;24.87;;;3.87;;
22129;SDS011;11231;50.746;4.272;2023-11-19T14:32:12;35.83;;;4.83;;
22129;SDS011;11231;50.746;4.272;2023-11-19T14:34:38;29.93;;;5.10;;
22129;SDS011;11231;50.746;4.272;2023-11-19T14:37:03;27.40;;;4.10;;
22129;SDS011;11231;50.746;4.272;2023-11-19T14:39:29;34.17;;;5.53;;
22129;SDS011;11231;50.746;4.272;2023-11-19T14:41:58;33.10;;;6.40;;
22129;SDS011;11231;50.746;4.272;2023-11-19T14:44:29;26.53;;;6.33;;
22129;SDS011;11231;50.746;4.272;2023-11-19T14:46:55;25.03;;;4.90;;
22129;SDS011;11231;50.746;4.272;2023-11-19T14:49:21;38.30;;;6.47;;
22129;SDS011;11231;50.746;4.272;2023-11-19T14:51:46;28.07;;;6.17;;
22129;SDS011;11231;50.746;4.272;2023-11-19T14:54:12;28.87;;;5.07;;
22129;SDS011;11231;50.746;4.272;2023-11-19T14:56:41;31.23;;;5.53;;
22129;SDS011;11231;50.746;4.272;2023-11-19T14:59:07;28.67;;;5.67;;
22129;SDS011;11231;50.746;4.272;2023-11-19T15:01:32;27.93;;;6.10;;